Terminal Aerodrome Forecast
Issued by NWS Greer, SC

Home | Current Version | Previous Version | Text Only | Print | Product List | Glossary On
Versions: 1 2 3 4 5 6 7 8 9 10 11 12
215
FTUS42 KGSP 212326
TAFGSP
TAF
KGSP 212326Z 2200/2224 15004KT P6SM FEW050 SCT250
     FM220200 16002KT P6SM FEW250
     FM221400 22004KT P6SM FEW040
     FM221700 22008KT P6SM SCT045=

USA.gov is the U.S. government's official web portal to all federal, state and local government web resources and services.